sensor_id;sensor_type;location;lat;lon;timestamp;noise_LAeq;noise_LA_min;noise_LA_max;noise_LA01;noise_LA95
68279;Laerm;55108;51.790;10.960;2022-10-28T00:01:50;60.90;44.02;79.78;;
68279;Laerm;55108;51.790;10.960;2022-10-28T00:04:15;50.68;41.01;73.27;;
68279;Laerm;55108;51.790;10.960;2022-10-28T00:06:40;52.49;40.60;72.65;;
68279;Laerm;55108;51.790;10.960;2022-10-28T00:09:06;56.34;42.97;72.65;;
68279;Laerm;55108;51.790;10.960;2022-10-28T00:11:32;51.47;41.51;70.58;;
68279;Laerm;55108;51.790;10.960;2022-10-28T00:13:58;55.42;44.14;75.13;;
68279;Laerm;55108;51.790;10.960;2022-10-28T00:16:25;53.17;43.03;76.48;;
68279;Laerm;55108;51.790;10.960;2022-10-28T00:18:51;56.19;42.98;79.56;;
68279;Laerm;55108;51.790;10.960;2022-10-28T00:21:19;62.52;45.23;81.30;;
68279;Laerm;55108;51.790;10.960;2022-10-28T00:23:44;52.63;45.56;70.28;;
68279;Laerm;55108;51.790;10.960;2022-10-28T00:28:35;52.83;43.46;74.53;;
68279;Laerm;55108;51.790;10.960;2022-10-28T00:31:07;52.28;42.60;68.58;;
68279;Laerm;55108;51.790;10.960;2022-10-28T00:33:32;52.18;44.36;70.67;;
68279;Laerm;55108;51.790;10.960;2022-10-28T00:36:11;52.09;44.66;71.12;;
68279;Laerm;55108;51.790;10.960;2022-10-28T00:38:38;52.25;45.07;70.45;;
68279;Laerm;55108;51.790;10.960;2022-10-28T00:41:03;61.88;43.96;80.38;;
68279;Laerm;55108;51.790;10.960;2022-10-28T00:43:39;53.94;44.01;66.12;;
68279;Laerm;55108;51.790;10.960;2022-10-28T00:46:06;54.64;45.43;70.07;;
68279;Laerm;55108;51.790;10.960;2022-10-28T00:48:34;54.10;45.25;70.03;;
68279;Laerm;55108;51.790;10.960;2022-10-28T00:50:59;55.12;48.76;67.58;;
68279;Laerm;55108;51.790;10.960;2022-10-28T00:53:25;52.68;45.31;64.57;;
68279;Laerm;55108;51.790;10.960;2022-10-28T00:55:52;55.12;49.63;70.64;;
68279;Laerm;55108;51.790;10.960;2022-10-28T00:58:18;58.50;48.30;75.55;;
68279;Laerm;55108;51.790;10.960;2022-10-28T01:00:44;52.64;45.75;65.75;;
68279;Laerm;55108;51.790;10.960;2022-10-28T01:03:10;54.85;45.23;76.39;;
68279;Laerm;55108;51.790;10.960;2022-10-28T01:05:35;53.55;44.80;72.50;;
68279;Laerm;55108;51.790;10.960;2022-10-28T01:08:03;55.80;45.40;71.74;;
68279;Laerm;55108;51.790;10.960;2022-10-28T01:10:33;52.85;45.36;68.47;;
68279;Laerm;55108;51.790;10.960;2022-10-28T01:13:46;55.99;45.30;74.22;;
68279;Laerm;55108;51.790;10.960;2022-10-28T01:18:34;59.23;44.80;77.89;;
68279;Laerm;55108;51.790;10.960;2022-10-28T01:23:47;64.37;46.95;85.85;;
68279;Laerm;55108;51.790;10.960;2022-10-28T01:31:16;59.66;48.27;77.35;;
68279;Laerm;55108;51.790;10.960;2022-10-28T01:36:29;64.25;45.09;85.45;;
68279;Laerm;55108;51.790;10.960;2022-10-28T01:41:37;63.07;45.45;85.76;;
68279;Laerm;55108;51.790;10.960;2022-10-28T01:46:47;56.47;44.81;76.56;;
68279;Laerm;55108;51.790;10.960;2022-10-28T01:49:15;55.42;46.90;74.08;;
68279;Laerm;55108;51.790;10.960;2022-10-28T01:51:47;55.68;47.16;73.35;;
68279;Laerm;55108;51.790;10.960;2022-10-28T01:54:15;62.52;44.33;82.44;;
68279;Laerm;55108;51.790;10.960;2022-10-28T01:56:41;63.24;45.07;83.13;;
68279;Laerm;55108;51.790;10.960;2022-10-28T01:59:08;61.27;45.89;79.49;;
68279;Laerm;55108;51.790;10.960;2022-10-28T02:01:35;51.27;43.20;72.94;;
68279;Laerm;55108;51.790;10.960;2022-10-28T02:04:00;63.11;44.54;82.45;;
68279;Laerm;55108;51.790;10.960;2022-10-28T02:06:26;55.88;46.07;79.22;;
68279;Laerm;55108;51.790;10.960;2022-10-28T02:11:39;59.81;45.28;78.77;;
68279;Laerm;55108;51.790;10.960;2022-10-28T02:14:31;60.16;45.76;75.75;;
68279;Laerm;55108;51.790;10.960;2022-10-28T02:19:37;56.69;47.33;76.69;;
68279;Laerm;55108;51.790;10.960;2022-10-28T02:24:53;64.58;46.35;83.75;;
68279;Laerm;55108;51.790;10.960;2022-10-28T02:29:50;57.73;45.13;73.42;;
68279;Laerm;55108;51.790;10.960;2022-10-28T02:32:21;61.88;44.08;79.46;;
68279;Laerm;55108;51.790;10.960;2022-10-28T02:34:49;56.29;46.79;71.49;;
68279;Laerm;55108;51.790;10.960;2022-10-28T02:37:18;60.47;48.29;73.49;;
68279;Laerm;55108;51.790;10.960;2022-10-28T02:39:45;66.57;46.70;91.15;;
68279;Laerm;55108;51.790;10.960;2022-10-28T02:42:17;53.81;47.07;71.61;;
68279;Laerm;55108;51.790;10.960;2022-10-28T02:44:46;59.88;47.05;78.10;;
68279;Laerm;55108;51.790;10.960;2022-10-28T02:47:13;57.70;46.18;71.96;;
68279;Laerm;55108;51.790;10.960;2022-10-28T02:49:41;56.04;45.17;74.37;;
68279;Laerm;55108;51.790;10.960;2022-10-28T02:52:09;63.52;46.66;77.10;;
68279;Laerm;55108;51.790;10.960;2022-10-28T02:54:37;60.28;45.79;74.53;;
68279;Laerm;55108;51.790;10.960;2022-10-28T02:57:05;55.61;44.51;71.80;;
68279;Laerm;55108;51.790;10.960;2022-10-28T02:59:31;53.43;44.55;77.08;;
68279;Laerm;55108;51.790;10.960;2022-10-28T03:01:57;61.54;44.05;78.96;;
68279;Laerm;55108;51.790;10.960;2022-10-28T03:04:22;61.80;42.03;74.97;;
68279;Laerm;55108;51.790;10.960;2022-10-28T03:06:47;68.24;42.79;91.93;;
68279;Laerm;55108;51.790;10.960;2022-10-28T03:09:12;48.50;41.99;70.95;;
68279;Laerm;55108;51.790;10.960;2022-10-28T03:11:37;62.14;43.76;80.59;;
68279;Laerm;55108;51.790;10.960;2022-10-28T03:14:03;66.42;44.92;80.84;;
68279;Laerm;55108;51.790;10.960;2022-10-28T03:16:28;63.70;44.65;77.29;;
68279;Laerm;55108;51.790;10.960;2022-10-28T03:18:53;59.81;43.96;74.85;;
68279;Laerm;55108;51.790;10.960;2022-10-28T03:21:18;60.45;44.98;76.28;;
68279;Laerm;55108;51.790;10.960;2022-10-28T03:23:44;63.58;44.95;80.43;;
68279;Laerm;55108;51.790;10.960;2022-10-28T03:26:09;65.00;46.37;80.21;;
68279;Laerm;55108;51.790;10.960;2022-10-28T03:28:34;62.69;44.81;77.39;;
68279;Laerm;55108;51.790;10.960;2022-10-28T03:30:59;63.47;47.41;75.63;;
68279;Laerm;55108;51.790;10.960;2022-10-28T03:33:24;66.74;48.40;82.49;;
68279;Laerm;55108;51.790;10.960;2022-10-28T03:35:50;62.61;46.47;77.84;;
68279;Laerm;55108;51.790;10.960;2022-10-28T03:38:15;62.17;44.28;80.29;;
68279;Laerm;55108;51.790;10.960;2022-10-28T03:40:40;63.83;45.38;77.13;;
68279;Laerm;55108;51.790;10.960;2022-10-28T03:43:05;63.67;46.00;79.27;;
68279;Laerm;55108;51.790;10.960;2022-10-28T03:45:30;64.72;42.51;81.98;;
68279;Laerm;55108;51.790;10.960;2022-10-28T03:47:55;61.06;45.20;82.59;;
68279;Laerm;55108;51.790;10.960;2022-10-28T03:50:21;67.43;45.25;80.75;;
68279;Laerm;55108;51.790;10.960;2022-10-28T03:52:46;67.17;41.64;85.15;;
68279;Laerm;55108;51.790;10.960;2022-10-28T03:55:11;64.32;39.85;79.08;;
68279;Laerm;55108;51.790;10.960;2022-10-28T03:57:36;63.66;41.54;75.36;;
68279;Laerm;55108;51.790;10.960;2022-10-28T04:00:02;66.38;42.78;77.65;;
68279;Laerm;55108;51.790;10.960;2022-10-28T04:02:27;63.02;41.93;80.07;;
68279;Laerm;55108;51.790;10.960;2022-10-28T04:04:52;64.45;42.24;80.20;;
68279;Laerm;55108;51.790;10.960;2022-10-28T04:07:17;63.71;45.12;76.71;;
68279;Laerm;55108;51.790;10.960;2022-10-28T04:09:43;64.80;44.31;78.44;;
68279;Laerm;55108;51.790;10.960;2022-10-28T04:12:08;67.40;43.15;82.71;;
68279;Laerm;55108;51.790;10.960;2022-10-28T04:14:34;64.71;44.50;79.29;;
68279;Laerm;55108;51.790;10.960;2022-10-28T04:16:59;66.25;43.41;82.26;;
68279;Laerm;55108;51.790;10.960;2022-10-28T04:19:25;66.38;44.26;81.07;;
68279;Laerm;55108;51.790;10.960;2022-10-28T04:21:50;64.07;45.11;79.46;;
68279;Laerm;55108;51.790;10.960;2022-10-28T04:24:15;63.33;42.80;77.49;;
68279;Laerm;55108;51.790;10.960;2022-10-28T04:26:40;64.89;43.57;78.95;;
68279;Laerm;55108;51.790;10.960;2022-10-28T04:29:05;63.42;44.61;79.42;;
68279;Laerm;55108;51.790;10.960;2022-10-28T04:31:30;65.40;46.17;80.21;;
68279;Laerm;55108;51.790;10.960;2022-10-28T04:33:55;66.09;45.05;83.34;;
68279;Laerm;55108;51.790;10.960;2022-10-28T04:36:21;62.35;44.20;74.69;;
68279;Laerm;55108;51.790;10.960;2022-10-28T04:38:46;69.52;48.21;82.76;;
68279;Laerm;55108;51.790;10.960;2022-10-28T04:41:11;64.34;43.54;81.59;;
68279;Laerm;55108;51.790;10.960;2022-10-28T04:43:38;68.62;45.70;83.72;;
68279;Laerm;55108;51.790;10.960;2022-10-28T04:46:03;65.15;46.62;87.50;;
68279;Laerm;55108;51.790;10.960;2022-10-28T04:48:30;66.99;46.64;82.24;;
68279;Laerm;55108;51.790;10.960;2022-10-28T04:50:55;63.39;42.97;76.22;;
68279;Laerm;55108;51.790;10.960;2022-10-28T04:53:21;67.98;46.20;81.41;;
68279;Laerm;55108;51.790;10.960;2022-10-28T04:55:46;66.48;44.18;79.97;;
68279;Laerm;55108;51.790;10.960;2022-10-28T04:58:11;64.58;44.38;76.48;;
68279;Laerm;55108;51.790;10.960;2022-10-28T05:00:36;64.02;42.23;79.95;;
68279;Laerm;55108;51.790;10.960;2022-10-28T05:03:01;64.89;44.57;75.18;;
68279;Laerm;55108;51.790;10.960;2022-10-28T05:05:27;68.83;44.10;83.90;;
68279;Laerm;55108;51.790;10.960;2022-10-28T05:07:52;68.02;45.69;86.87;;
68279;Laerm;55108;51.790;10.960;2022-10-28T05:10:17;66.45;44.42;83.04;;
68279;Laerm;55108;51.790;10.960;2022-10-28T05:12:43;64.86;45.05;81.00;;
68279;Laerm;55108;51.790;10.960;2022-10-28T05:15:09;65.27;48.28;81.53;;
68279;Laerm;55108;51.790;10.960;2022-10-28T05:17:34;63.83;47.10;76.82;;
68279;Laerm;55108;51.790;10.960;2022-10-28T05:19:59;70.28;50.17;83.54;;
68279;Laerm;55108;51.790;10.960;2022-10-28T05:22:24;66.91;45.91;82.57;;
68279;Laerm;55108;51.790;10.960;2022-10-28T05:24:49;63.20;47.52;74.20;;
68279;Laerm;55108;51.790;10.960;2022-10-28T05:27:15;65.91;46.45;80.44;;
68279;Laerm;55108;51.790;10.960;2022-10-28T05:29:40;69.44;47.77;82.30;;
68279;Laerm;55108;51.790;10.960;2022-10-28T05:32:05;67.75;49.23;81.60;;
68279;Laerm;55108;51.790;10.960;2022-10-28T05:34:30;61.75;42.10;75.45;;
68279;Laerm;55108;51.790;10.960;2022-10-28T05:36:55;66.09;43.16;81.11;;
68279;Laerm;55108;51.790;10.960;2022-10-28T05:39:21;66.35;44.19;81.86;;
68279;Laerm;55108;51.790;10.960;2022-10-28T05:41:46;69.46;47.66;82.43;;
68279;Laerm;55108;51.790;10.960;2022-10-28T05:44:11;65.90;46.36;82.53;;
68279;Laerm;55108;51.790;10.960;2022-10-28T05:46:36;67.87;47.68;81.01;;
68279;Laerm;55108;51.790;10.960;2022-10-28T05:49:01;67.14;48.09;80.11;;
68279;Laerm;55108;51.790;10.960;2022-10-28T05:51:26;67.12;46.00;80.11;;
68279;Laerm;55108;51.790;10.960;2022-10-28T05:53:52;64.66;47.55;74.00;;
68279;Laerm;55108;51.790;10.960;2022-10-28T05:56:17;66.21;45.57;80.67;;
68279;Laerm;55108;51.790;10.960;2022-10-28T05:58:42;70.51;47.66;82.58;;
68279;Laerm;55108;51.790;10.960;2022-10-28T06:01:07;68.13;47.21;79.48;;
68279;Laerm;55108;51.790;10.960;2022-10-28T06:03:33;68.71;47.34;81.07;;
68279;Laerm;55108;51.790;10.960;2022-10-28T06:05:59;66.52;48.22;80.46;;
68279;Laerm;55108;51.790;10.960;2022-10-28T06:08:24;67.89;49.57;83.32;;
68279;Laerm;55108;51.790;10.960;2022-10-28T06:10:50;68.10;45.36;83.20;;
68279;Laerm;55108;51.790;10.960;2022-10-28T06:13:16;66.66;46.99;81.07;;
68279;Laerm;55108;51.790;10.960;2022-10-28T06:15:41;66.98;45.56;80.61;;
68279;Laerm;55108;51.790;10.960;2022-10-28T06:18:06;66.66;45.84;79.58;;
68279;Laerm;55108;51.790;10.960;2022-10-28T06:20:31;65.17;46.80;77.76;;
68279;Laerm;55108;51.790;10.960;2022-10-28T06:22:56;68.14;45.66;79.47;;
68279;Laerm;55108;51.790;10.960;2022-10-28T06:25:22;66.68;47.66;79.41;;
68279;Laerm;55108;51.790;10.960;2022-10-28T06:27:54;66.40;45.18;79.54;;
68279;Laerm;55108;51.790;10.960;2022-10-28T06:30:20;66.72;47.52;80.85;;
68279;Laerm;55108;51.790;10.960;2022-10-28T06:32:45;68.83;53.27;81.19;;
68279;Laerm;55108;51.790;10.960;2022-10-28T06:35:10;65.35;43.82;79.88;;
68279;Laerm;55108;51.790;10.960;2022-10-28T06:37:36;69.77;48.76;83.80;;
68279;Laerm;55108;51.790;10.960;2022-10-28T06:40:01;66.52;44.99;87.87;;
68279;Laerm;55108;51.790;10.960;2022-10-28T06:42:26;65.93;44.78;82.57;;
68279;Laerm;55108;51.790;10.960;2022-10-28T06:44:51;66.82;45.21;79.41;;
68279;Laerm;55108;51.790;10.960;2022-10-28T06:47:18;67.53;48.34;76.43;;
68279;Laerm;55108;51.790;10.960;2022-10-28T06:49:43;66.67;46.19;80.86;;
68279;Laerm;55108;51.790;10.960;2022-10-28T06:52:08;65.24;45.20;76.64;;
68279;Laerm;55108;51.790;10.960;2022-10-28T06:54:34;66.21;47.45;83.50;;
68279;Laerm;55108;51.790;10.960;2022-10-28T06:56:59;66.16;45.54;80.90;;
68279;Laerm;55108;51.790;10.960;2022-10-28T06:59:24;66.92;45.59;85.33;;
68279;Laerm;55108;51.790;10.960;2022-10-28T07:01:49;68.27;46.74;80.28;;
68279;Laerm;55108;51.790;10.960;2022-10-28T07:04:14;68.61;47.71;78.46;;
68279;Laerm;55108;51.790;10.960;2022-10-28T07:06:39;68.74;47.11;82.96;;
68279;Laerm;55108;51.790;10.960;2022-10-28T07:09:05;69.02;47.98;80.44;;
68279;Laerm;55108;51.790;10.960;2022-10-28T07:11:30;66.28;46.43;78.70;;
68279;Laerm;55108;51.790;10.960;2022-10-28T07:13:55;66.44;47.20;83.63;;
68279;Laerm;55108;51.790;10.960;2022-10-28T07:16:20;67.68;47.90;83.11;;
68279;Laerm;55108;51.790;10.960;2022-10-28T07:18:45;67.82;48.61;81.70;;
68279;Laerm;55108;51.790;10.960;2022-10-28T07:21:11;63.91;47.09;79.36;;
68279;Laerm;55108;51.790;10.960;2022-10-28T07:23:37;67.83;47.21;80.55;;
68279;Laerm;55108;51.790;10.960;2022-10-28T07:26:03;67.80;47.25;78.67;;
68279;Laerm;55108;51.790;10.960;2022-10-28T07:28:28;65.51;46.76;78.18;;
68279;Laerm;55108;51.790;10.960;2022-10-28T07:30:53;69.57;48.55;83.85;;
68279;Laerm;55108;51.790;10.960;2022-10-28T07:33:18;66.86;45.87;79.76;;
68279;Laerm;55108;51.790;10.960;2022-10-28T07:35:44;66.09;46.52;78.89;;
68279;Laerm;55108;51.790;10.960;2022-10-28T07:38:09;70.11;46.79;83.16;;
68279;Laerm;55108;51.790;10.960;2022-10-28T07:40:35;68.86;53.69;84.18;;
68279;Laerm;55108;51.790;10.960;2022-10-28T07:43:00;67.42;44.91;82.25;;
68279;Laerm;55108;51.790;10.960;2022-10-28T07:45:25;68.21;45.34;84.07;;
68279;Laerm;55108;51.790;10.960;2022-10-28T07:47:50;68.38;46.80;78.46;;
68279;Laerm;55108;51.790;10.960;2022-10-28T07:50:16;67.41;46.69;76.41;;
68279;Laerm;55108;51.790;10.960;2022-10-28T07:52:41;68.01;45.03;82.76;;
68279;Laerm;55108;51.790;10.960;2022-10-28T07:55:07;68.00;48.00;79.54;;
68279;Laerm;55108;51.790;10.960;2022-10-28T07:57:32;68.72;47.73;81.55;;
68279;Laerm;55108;51.790;10.960;2022-10-28T07:59:58;69.96;47.88;80.47;;
68279;Laerm;55108;51.790;10.960;2022-10-28T08:02:23;68.20;47.58;76.12;;
68279;Laerm;55108;51.790;10.960;2022-10-28T08:04:49;68.44;46.26;81.88;;
68279;Laerm;55108;51.790;10.960;2022-10-28T08:07:14;69.03;45.71;82.88;;
68279;Laerm;55108;51.790;10.960;2022-10-28T08:09:40;68.70;52.07;81.15;;
68279;Laerm;55108;51.790;10.960;2022-10-28T08:12:06;65.07;45.90;75.33;;
68279;Laerm;55108;51.790;10.960;2022-10-28T08:14:31;68.41;49.42;85.21;;
68279;Laerm;55108;51.790;10.960;2022-10-28T08:16:56;67.12;47.69;78.18;;
68279;Laerm;55108;51.790;10.960;2022-10-28T08:19:21;69.68;48.97;81.27;;
68279;Laerm;55108;51.790;10.960;2022-10-28T08:21:46;67.41;49.00;76.01;;
68279;Laerm;55108;51.790;10.960;2022-10-28T08:24:12;69.94;48.03;79.39;;
68279;Laerm;55108;51.790;10.960;2022-10-28T08:26:37;65.98;46.70;74.89;;
68279;Laerm;55108;51.790;10.960;2022-10-28T08:29:02;65.69;46.03;73.62;;
68279;Laerm;55108;51.790;10.960;2022-10-28T08:31:27;68.55;47.33;79.42;;
68279;Laerm;55108;51.790;10.960;2022-10-28T08:33:52;67.48;45.70;79.19;;
68279;Laerm;55108;51.790;10.960;2022-10-28T08:36:18;68.79;44.08;79.90;;
68279;Laerm;55108;51.790;10.960;2022-10-28T08:38:43;66.64;42.93;76.08;;
68279;Laerm;55108;51.790;10.960;2022-10-28T08:41:15;68.63;47.45;80.19;;
68279;Laerm;55108;51.790;10.960;2022-10-28T08:43:48;69.44;46.65;80.77;;
68279;Laerm;55108;51.790;10.960;2022-10-28T08:46:23;68.76;47.95;82.34;;
68279;Laerm;55108;51.790;10.960;2022-10-28T08:48:50;70.00;51.96;79.47;;
68279;Laerm;55108;51.790;10.960;2022-10-28T08:53:54;67.89;44.82;79.44;;
68279;Laerm;55108;51.790;10.960;2022-10-28T08:56:24;66.61;44.97;75.60;;
68279;Laerm;55108;51.790;10.960;2022-10-28T08:58:52;66.47;42.70;75.85;;
68279;Laerm;55108;51.790;10.960;2022-10-28T09:01:24;67.97;44.17;76.93;;
68279;Laerm;55108;51.790;10.960;2022-10-28T09:03:55;67.65;49.23;76.58;;
68279;Laerm;55108;51.790;10.960;2022-10-28T09:06:20;65.18;43.83;78.19;;
68279;Laerm;55108;51.790;10.960;2022-10-28T09:08:46;68.90;42.63;82.76;;
68279;Laerm;55108;51.790;10.960;2022-10-28T09:11:24;67.29;46.38;82.55;;
68279;Laerm;55108;51.790;10.960;2022-10-28T09:16:44;67.05;44.64;76.32;;
68279;Laerm;55108;51.790;10.960;2022-10-28T09:19:23;67.96;48.83;77.33;;
68279;Laerm;55108;51.790;10.960;2022-10-28T09:21:59;66.96;39.86;77.54;;
68279;Laerm;55108;51.790;10.960;2022-10-28T09:27:07;67.09;45.67;79.94;;
68279;Laerm;55108;51.790;10.960;2022-10-28T09:32:13;67.89;45.62;81.33;;
68279;Laerm;55108;51.790;10.960;2022-10-28T09:34:48;68.92;49.85;81.13;;
68279;Laerm;55108;51.790;10.960;2022-10-28T09:37:17;67.85;50.85;77.03;;
68279;Laerm;55108;51.790;10.960;2022-10-28T09:39:47;69.09;43.80;84.10;;
68279;Laerm;55108;51.790;10.960;2022-10-28T09:42:19;67.46;46.32;77.65;;
68279;Laerm;55108;51.790;10.960;2022-10-28T09:44:48;69.95;50.14;82.29;;
68279;Laerm;55108;51.790;10.960;2022-10-28T09:47:24;67.68;44.89;81.13;;
68279;Laerm;55108;51.790;10.960;2022-10-28T09:49:52;67.60;43.25;79.65;;
68279;Laerm;55108;51.790;10.960;2022-10-28T09:52:22;66.55;42.83;77.63;;
68279;Laerm;55108;51.790;10.960;2022-10-28T09:54:50;71.72;49.20;85.76;;
68279;Laerm;55108;51.790;10.960;2022-10-28T09:57:16;66.13;46.68;77.94;;
68279;Laerm;55108;51.790;10.960;2022-10-28T09:59:41;68.73;51.79;83.52;;
68279;Laerm;55108;51.790;10.960;2022-10-28T10:02:15;68.34;46.50;82.14;;
68279;Laerm;55108;51.790;10.960;2022-10-28T10:04:47;68.03;44.60;81.21;;
68279;Laerm;55108;51.790;10.960;2022-10-28T10:07:12;69.79;52.45;83.02;;
68279;Laerm;55108;51.790;10.960;2022-10-28T10:09:45;66.69;44.72;77.42;;
68279;Laerm;55108;51.790;10.960;2022-10-28T10:12:10;68.04;47.22;81.16;;
68279;Laerm;55108;51.790;10.960;2022-10-28T10:14:40;67.85;46.90;83.89;;
68279;Laerm;55108;51.790;10.960;2022-10-28T10:17:14;66.57;46.42;77.30;;
68279;Laerm;55108;51.790;10.960;2022-10-28T10:22:28;66.21;51.29;78.58;;
68279;Laerm;55108;51.790;10.960;2022-10-28T10:24:54;66.62;49.27;76.02;;
68279;Laerm;55108;51.790;10.960;2022-10-28T10:27:19;67.01;43.32;80.47;;
68279;Laerm;55108;51.790;10.960;2022-10-28T10:29:45;66.45;42.81;77.70;;
68279;Laerm;55108;51.790;10.960;2022-10-28T10:32:18;67.89;49.57;78.71;;
68279;Laerm;55108;51.790;10.960;2022-10-28T10:35:05;65.92;48.27;77.23;;
68279;Laerm;55108;51.790;10.960;2022-10-28T10:37:32;68.46;46.00;81.94;;
68279;Laerm;55108;51.790;10.960;2022-10-28T10:40:03;65.58;44.72;76.72;;
68279;Laerm;55108;51.790;10.960;2022-10-28T10:42:29;70.21;47.85;82.00;;
68279;Laerm;55108;51.790;10.960;2022-10-28T10:44:59;66.94;49.65;75.99;;
68279;Laerm;55108;51.790;10.960;2022-10-28T10:47:24;69.30;50.22;83.59;;
68279;Laerm;55108;51.790;10.960;2022-10-28T10:49:50;69.42;50.85;82.42;;
68279;Laerm;55108;51.790;10.960;2022-10-28T10:52:19;68.92;48.16;77.44;;
68279;Laerm;55108;51.790;10.960;2022-10-28T10:54:55;66.66;45.73;79.47;;
68279;Laerm;55108;51.790;10.960;2022-10-28T10:57:21;69.99;46.43;83.74;;
68279;Laerm;55108;51.790;10.960;2022-10-28T10:59:48;68.01;44.25;81.99;;
68279;Laerm;55108;51.790;10.960;2022-10-28T11:02:26;69.75;51.56;79.58;;
68279;Laerm;55108;51.790;10.960;2022-10-28T11:04:52;70.33;49.39;92.84;;
68279;Laerm;55108;51.790;10.960;2022-10-28T11:07:18;68.96;49.98;78.75;;
68279;Laerm;55108;51.790;10.960;2022-10-28T11:09:45;69.01;51.64;81.42;;
68279;Laerm;55108;51.790;10.960;2022-10-28T11:14:39;69.23;50.30;79.74;;
68279;Laerm;55108;51.790;10.960;2022-10-28T11:17:24;68.96;47.00;80.29;;
68279;Laerm;55108;51.790;10.960;2022-10-28T11:19:51;69.09;48.36;84.29;;
68279;Laerm;55108;51.790;10.960;2022-10-28T11:25:07;68.54;44.33;83.74;;
68279;Laerm;55108;51.790;10.960;2022-10-28T11:30:03;69.98;49.67;81.73;;
68279;Laerm;55108;51.790;10.960;2022-10-28T11:35:02;67.91;47.01;81.09;;
68279;Laerm;55108;51.790;10.960;2022-10-28T11:45:17;67.99;47.48;89.37;;
68279;Laerm;55108;51.790;10.960;2022-10-28T11:55:28;68.11;46.00;80.29;;
68279;Laerm;55108;51.790;10.960;2022-10-28T11:58:03;67.83;47.97;77.09;;
68279;Laerm;55108;51.790;10.960;2022-10-28T12:06:31;69.50;47.24;81.58;;
68279;Laerm;55108;51.790;10.960;2022-10-28T12:13:50;67.06;44.63;79.70;;
68279;Laerm;55108;51.790;10.960;2022-10-28T12:21:21;67.47;45.46;76.09;;
68279;Laerm;55108;51.790;10.960;2022-10-28T12:23:48;67.30;43.16;76.62;;
68279;Laerm;55108;51.790;10.960;2022-10-28T12:26:15;68.86;46.86;82.49;;
68279;Laerm;55108;51.790;10.960;2022-10-28T12:28:47;68.84;45.95;80.15;;
68279;Laerm;55108;51.790;10.960;2022-10-28T12:31:55;66.70;44.77;78.30;;
68279;Laerm;55108;51.790;10.960;2022-10-28T12:34:03;68.66;46.01;84.72;;
68279;Laerm;55108;51.790;10.960;2022-10-28T12:36:33;66.49;44.04;80.41;;
68279;Laerm;55108;51.790;10.960;2022-10-28T12:39:12;69.65;47.00;80.73;;
68279;Laerm;55108;51.790;10.960;2022-10-28T12:41:49;69.48;46.14;85.52;;
68279;Laerm;55108;51.790;10.960;2022-10-28T12:44:20;68.55;52.49;79.66;;
68279;Laerm;55108;51.790;10.960;2022-10-28T12:46:49;68.72;44.90;82.07;;
68279;Laerm;55108;51.790;10.960;2022-10-28T12:49:23;65.96;43.17;78.93;;
68279;Laerm;55108;51.790;10.960;2022-10-28T12:51:49;70.11;45.55;82.83;;
68279;Laerm;55108;51.790;10.960;2022-10-28T12:56:41;66.72;47.10;82.16;;
68279;Laerm;55108;51.790;10.960;2022-10-28T13:01:33;65.61;47.78;76.59;;
68279;Laerm;55108;51.790;10.960;2022-10-28T13:03:59;71.00;53.35;88.72;;
68279;Laerm;55108;51.790;10.960;2022-10-28T13:14:44;68.28;42.78;76.76;;
68279;Laerm;55108;51.790;10.960;2022-10-28T13:20:00;69.72;42.18;85.57;;
68279;Laerm;55108;51.790;10.960;2022-10-28T13:22:38;71.46;42.53;87.03;;
68279;Laerm;55108;51.790;10.960;2022-10-28T13:27:54;66.97;51.94;77.29;;
68279;Laerm;55108;51.790;10.960;2022-10-28T13:30:19;69.27;53.16;83.31;;
68279;Laerm;55108;51.790;10.960;2022-10-28T13:32:46;65.92;42.66;80.45;;
68279;Laerm;55108;51.790;10.960;2022-10-28T13:35:20;68.08;47.71;77.96;;
68279;Laerm;55108;51.790;10.960;2022-10-28T13:37:46;68.87;46.52;82.74;;
68279;Laerm;55108;51.790;10.960;2022-10-28T13:40:19;65.80;45.65;77.14;;
68279;Laerm;55108;51.790;10.960;2022-10-28T13:42:45;67.41;53.38;77.75;;
68279;Laerm;55108;51.790;10.960;2022-10-28T13:50:46;67.16;41.84;77.71;;
68279;Laerm;55108;51.790;10.960;2022-10-28T13:55:48;69.08;49.80;80.33;;
68279;Laerm;55108;51.790;10.960;2022-10-28T13:58:20;68.74;49.52;78.44;;
68279;Laerm;55108;51.790;10.960;2022-10-28T14:00:49;67.57;44.38;77.83;;
68279;Laerm;55108;51.790;10.960;2022-10-28T14:05:48;69.13;46.82;85.17;;
68279;Laerm;55108;51.790;10.960;2022-10-28T14:08:23;67.20;47.67;78.50;;
68279;Laerm;55108;51.790;10.960;2022-10-28T14:13:24;67.33;45.09;78.14;;
68279;Laerm;55108;51.790;10.960;2022-10-28T14:15:49;68.00;48.85;81.28;;
68279;Laerm;55108;51.790;10.960;2022-10-28T14:18:34;67.60;51.37;76.90;;
68279;Laerm;55108;51.790;10.960;2022-10-28T14:21:00;69.57;51.98;79.27;;
68279;Laerm;55108;51.790;10.960;2022-10-28T14:36:07;67.52;45.96;76.36;;
68279;Laerm;55108;51.790;10.960;2022-10-28T14:49:15;67.74;47.39;77.44;;
68279;Laerm;55108;51.790;10.960;2022-10-28T14:51:41;68.50;45.94;80.96;;
68279;Laerm;55108;51.790;10.960;2022-10-28T14:54:08;67.20;45.53;78.12;;
68279;Laerm;55108;51.790;10.960;2022-10-28T14:56:37;67.70;52.99;78.26;;
68279;Laerm;55108;51.790;10.960;2022-10-28T14:59:13;69.46;46.53;82.93;;
68279;Laerm;55108;51.790;10.960;2022-10-28T15:04:25;67.09;45.63;77.85;;
68279;Laerm;55108;51.790;10.960;2022-10-28T15:06:50;67.29;46.79;77.51;;
68279;Laerm;55108;51.790;10.960;2022-10-28T15:09:31;65.56;42.76;77.04;;
68279;Laerm;55108;51.790;10.960;2022-10-28T15:12:03;68.36;40.85;77.43;;
68279;Laerm;55108;51.790;10.960;2022-10-28T15:14:33;67.78;43.41;79.27;;
68279;Laerm;55108;51.790;10.960;2022-10-28T15:17:02;68.75;49.59;78.90;;
68279;Laerm;55108;51.790;10.960;2022-10-28T15:19:27;66.73;46.69;80.67;;
68279;Laerm;55108;51.790;10.960;2022-10-28T15:22:01;67.19;51.11;79.68;;
68279;Laerm;55108;51.790;10.960;2022-10-28T15:24:26;67.72;41.11;79.62;;
68279;Laerm;55108;51.790;10.960;2022-10-28T15:26:52;66.86;44.53;81.76;;
68279;Laerm;55108;51.790;10.960;2022-10-28T15:29:18;67.33;44.43;79.49;;
68279;Laerm;55108;51.790;10.960;2022-10-28T15:32:04;68.32;44.75;79.96;;
68279;Laerm;55108;51.790;10.960;2022-10-28T15:34:29;67.86;45.57;77.28;;
68279;Laerm;55108;51.790;10.960;2022-10-28T15:36:54;67.90;46.51;76.50;;
68279;Laerm;55108;51.790;10.960;2022-10-28T15:39:20;68.84;43.02;81.47;;
68279;Laerm;55108;51.790;10.960;2022-10-28T15:41:47;66.77;43.06;77.15;;
68279;Laerm;55108;51.790;10.960;2022-10-28T15:44:25;68.51;52.61;80.42;;
68279;Laerm;55108;51.790;10.960;2022-10-28T15:46:51;67.61;43.53;77.85;;
68279;Laerm;55108;51.790;10.960;2022-10-28T15:49:55;68.07;41.42;83.10;;
68279;Laerm;55108;51.790;10.960;2022-10-28T15:52:18;67.22;49.95;78.17;;
68279;Laerm;55108;51.790;10.960;2022-10-28T15:54:53;66.23;42.62;78.85;;
68279;Laerm;55108;51.790;10.960;2022-10-28T15:57:20;67.16;41.28;76.89;;
68279;Laerm;55108;51.790;10.960;2022-10-28T15:59:45;67.45;43.21;78.00;;